Terminal Aerodrome Forecast
Issued by NWS

Home | Current Version | Previous Version | Text Only | Print | Product List | Glossary Off
Versions: 1 2 3 4 5 6 7 8 9 10 11 12 13 14 15 16 17 18 19 20 21

000
FTUS43 KIWX 230359 AAA
TAFSBN
TAF AMD
KSBN 230359Z 2304/2324 01008KT 1/2SM FG OVC003
     FM231500 34010KT 2SM BR OVC007
     FM232200 33010KT 3SM BR OVC010=

USA.gov is the U.S. government's official web portal to all federal, state and local government web resources and services.